Date,TemperatureHighF,TemperatureAvgF,TemperatureLowF,DewpointHighF,DewpointAvgF,DewpointLowF,HumidityHigh,HumidityAvg,HumidityLow,PressureMaxIn,PressureMinIn,WindSpeedMaxMPH,WindSpeedAvgMPH,GustSpeedMaxMPH,PrecipitationSumIn
2013-2-1,44,38,31,33,21,12,82,53,30,30.44,30.19,10,3,18,0.00
2013-2-2,54,39,27,43,30,19,100,73,42,30.38,30.12,7,1,18,0.07
2013-2-3,58,46,32,40,35,30,100,69,36,30.20,30.07,10,2,20,0.07
2013-2-4,52,44,36,38,34,30,81,67,49,30.13,29.99,3,0,10,0.01
2013-2-5,56,51,45,56,48,37,100,88,71,30.06,29.96,2,0,7,0.05
2013-2-6,67,56,47,52,44,38,100,71,35,30.19,30.06,4,0,7,0.05
2013-2-7,56,50,47,52,49,39,100,96,52,30.10,29.90,8,3,13,0.21
2013-2-8,53,48,38,52,46,35,100,93,71,30.24,29.93,9,2,18,0.20
2013-2-9,62,46,31,41,35,31,100,70,33,30.30,30.15,8,1,13,0.12
2013-2-10,58,54,50,58,49,39,100,84,58,30.18,29.96,6,1,15,2.07
2013-2-11,58,54,49,58,54,49,100,100,100,30.16,29.99,4,0,11,2.12
2013-2-12,50,46,43,50,45,39,100,97,75,30.15,29.77,7,2,15,0.66
2013-2-13,48,45,39,48,43,37,100,93,80,30.04,29.73,9,3,20,0.66
2013-2-14,56,44,33,41,39,33,100,83,52,30.12,30.03,5,1,9,0.02
2013-2-15,62,48,36,45,38,36,100,72,42,30.14,30.02,8,2,15,0.00
2013-2-16,47,39,31,37,24,16,74,58,35,30.24,30.06,11,4,23,0.00
2013-2-17,50,37,25,24,21,15,85,54,27,30.33,30.22,6,1,12,0.00
2013-2-18,61,48,34,40,32,23,79,56,40,30.30,29.97,8,3,23,0.00
2013-2-19,56,49,41,49,37,23,100,68,30,30.24,29.96,9,4,17,0.61
2013-2-20,45,40,31,28,23,17,85,54,33,30.27,30.13,8,1,14,0.61
2013-2-21,63,48,34,50,31,22,100,57,26,30.15,29.86,9,3,14,1.75
2013-2-22,53,50,48,53,50,47,100,100,100,30.07,29.91,6,2,11,1.76
2013-2-23,58,50,43,52,48,43,100,96,77,29.98,29.86,6,2,14,0.72
2013-2-24,64,50,35,43,39,35,100,70,40,30.06,29.92,8,1,10,0.11
2013-2-25,60,51,46,54,45,33,100,81,52,29.92,29.54,10,5,22,0.72
2013-2-26,51,47,44,51,42,35,100,83,69,29.85,29.48,9,4,23,0.87
2013-2-27,57,48,39,39,37,35,90,66,44,29.96,29.85,9,3,19,0.34
2013-2-28,44,40,36,36,32,29,91,72,60,30.07,29.93,10,4,19,0.00